Time;durP1;ratioP1;P1;durP2;ratioP2;P2;SDS_P1;SDS_P2;PMS_P1;PMS_P2;Temp;Humidity;BMP_temperature;BMP_pressure;BME280_temperature;BME280_humidity;BME280_pressure;Samples;Min_cycle;Max_cycle;Signal;HPM_P1;HPM_P2
2023/05/27 00:01:58;;;;;;;15.20;3.73;;;13.70;99.90;;;;;;5071432;28;20200;-61
2023/05/27 00:04:24;;;;;;;12.43;4.27;;;13.70;99.90;;;;;;5075451;28;20184;-60
2023/05/27 00:06:49;;;;;;;12.37;3.97;;;13.60;99.90;;;;;;5074987;28;20264;-61
2023/05/27 00:09:15;;;;;;;19.33;4.33;;;13.60;99.90;;;;;;5074620;28;20250;-60
2023/05/27 00:11:41;;;;;;;15.90;4.10;;;13.50;99.90;;;;;;5076105;28;20177;-61
2023/05/27 00:14:06;;;;;;;15.53;4.97;;;13.40;99.90;;;;;;5077317;28;20168;-61
2023/05/27 00:16:35;;;;;;;15.97;3.47;;;13.40;99.90;;;;;;5077210;28;20673;-61
2023/05/27 00:19:01;;;;;;;14.80;4.23;;;13.40;99.90;;;;;;5076649;28;20659;-62
2023/05/27 00:21:27;;;;;;;12.83;4.33;;;13.30;99.90;;;;;;5076635;28;20191;-60
2023/05/27 00:23:52;;;;;;;11.70;3.90;;;13.20;99.90;;;;;;5077044;28;20169;-60
2023/05/27 00:26:18;;;;;;;14.70;4.40;;;13.20;99.90;;;;;;5078178;28;20552;-59
2023/05/27 00:28:44;;;;;;;15.30;4.20;;;13.20;99.90;;;;;;5075857;28;20173;-59
2023/05/27 00:31:09;;;;;;;12.73;3.80;;;13.20;99.90;;;;;;5077021;28;20173;-62
2023/05/27 00:33:35;;;;;;;13.03;3.33;;;13.20;99.90;;;;;;5078198;28;20169;-62
2023/05/27 00:36:01;;;;;;;11.53;3.50;;;13.20;99.90;;;;;;5077368;28;20173;-59
2023/05/27 00:38:26;;;;;;;11.33;3.40;;;13.20;99.90;;;;;;5076934;28;20556;-60
2023/05/27 00:40:53;;;;;;;14.47;4.37;;;13.20;99.90;;;;;;5077816;28;20483;-62
2023/05/27 00:43:25;;;;;;;15.73;5.03;;;13.20;99.90;;;;;;5076471;28;20173;-63
2023/05/27 00:45:51;;;;;;;15.83;4.20;;;13.10;99.90;;;;;;5076072;28;20172;-65
2023/05/27 00:48:16;;;;;;;13.47;3.77;;;13.10;99.90;;;;;;5073699;28;20196;-65
2023/05/27 00:50:42;;;;;;;14.60;3.60;;;12.80;99.90;;;;;;5075030;28;20468;-66
2023/05/27 00:53:08;;;;;;;18.27;5.10;;;12.80;99.90;;;;;;5071667;28;20251;-69
2023/05/27 00:55:33;;;;;;;11.87;4.10;;;12.60;99.90;;;;;;5072125;28;20528;-62
2023/05/27 00:57:59;;;;;;;10.93;3.27;;;12.60;99.90;;;;;;5072176;28;20219;-61
2023/05/27 01:00:26;;;;;;;14.40;3.67;;;12.70;99.90;;;;;;5071047;28;20173;-62
2023/05/27 01:02:52;;;;;;;16.07;5.70;;;12.70;99.90;;;;;;5071341;28;20256;-59
2023/05/27 01:05:19;;;;;;;15.43;4.43;;;12.80;99.90;;;;;;5069849;28;20264;-61
2023/05/27 01:08:04;;;;;;;13.57;3.83;;;12.90;99.90;;;;;;5070725;28;20175;-62
2023/05/27 01:10:50;;;;;;;9.57;3.87;;;12.90;99.90;;;;;;5071316;28;20355;-61
2023/05/27 01:13:38;;;;;;;11.20;3.40;;;12.90;99.90;;;;;;5073074;28;20175;-61
2023/05/27 01:16:11;;;;;;;11.80;3.77;;;12.80;99.90;;;;;;5073036;28;20478;-63
2023/05/27 01:18:40;;;;;;;12.60;4.10;;;12.80;99.90;;;;;;5073596;28;20233;-61
2023/05/27 01:21:09;;;;;;;15.87;4.33;;;12.80;99.90;;;;;;5074273;28;20611;-62
2023/05/27 01:23:38;;;;;;;13.60;3.60;;;12.80;99.90;;;;;;5072390;28;20173;-61
2023/05/27 01:26:04;;;;;;;12.70;4.20;;;12.70;99.90;;;;;;5071839;28;20165;-60
2023/05/27 01:28:30;;;;;;;14.13;4.27;;;12.70;99.90;;;;;;5071928;28;20161;-60
2023/05/27 01:31:02;;;;;;;14.63;4.03;;;12.60;99.90;;;;;;5070826;28;20277;-62
2023/05/27 01:33:30;;;;;;;10.80;3.90;;;12.60;99.90;;;;;;5070648;28;20256;-61
2023/05/27 01:36:01;;;;;;;13.20;3.53;;;12.50;99.90;;;;;;5070023;28;20169;-61
2023/05/27 01:38:30;;;;;;;16.30;3.73;;;12.50;99.90;;;;;;5071330;28;20204;-62
2023/05/27 01:40:56;;;;;;;15.60;4.17;;;12.50;99.90;;;;;;5072320;28;20165;-62
2023/05/27 01:43:22;;;;;;;9.60;3.80;;;12.50;99.90;;;;;;5072143;28;20164;-60
2023/05/27 01:45:48;;;;;;;12.40;4.23;;;12.50;99.90;;;;;;5072278;28;20352;-61
2023/05/27 01:48:13;;;;;;;14.03;4.40;;;12.50;99.90;;;;;;5072126;28;20176;-61
2023/05/27 01:50:39;;;;;;;14.47;3.77;;;12.50;99.90;;;;;;5073040;28;20606;-62
2023/05/27 01:53:05;;;;;;;13.57;3.57;;;12.30;99.90;;;;;;5073398;28;20225;-63
2023/05/27 01:55:31;;;;;;;16.97;3.70;;;12.30;99.90;;;;;;5072543;28;20173;-61
2023/05/27 01:57:57;;;;;;;17.63;3.60;;;12.30;99.90;;;;;;5069731;28;20173;-62
2023/05/27 02:00:24;;;;;;;14.70;4.73;;;12.30;99.90;;;;;;5071530;28;20283;-61
2023/05/27 02:02:49;;;;;;;12.03;3.73;;;12.20;99.90;;;;;;5072449;28;20164;-61
2023/05/27 02:05:15;;;;;;;18.23;4.87;;;12.20;99.90;;;;;;5070586;28;20165;-61
2023/05/27 02:07:41;;;;;;;15.37;4.13;;;12.30;99.90;;;;;;5070669;28;20204;-61
2023/05/27 02:10:07;;;;;;;11.37;3.63;;;12.20;99.90;;;;;;5070112;28;20169;-56
2023/05/27 02:12:33;;;;;;;10.53;3.43;;;12.20;99.90;;;;;;5071133;28;20169;-61
2023/05/27 02:14:58;;;;;;;15.83;3.80;;;12.10;99.90;;;;;;5071488;28;20180;-62
2023/05/27 02:17:27;;;;;;;18.30;4.37;;;12.00;99.90;;;;;;5071669;28;20286;-62
2023/05/27 02:19:52;;;;;;;14.40;4.40;;;12.00;99.90;;;;;;5070325;28;20236;-61
2023/05/27 02:22:18;;;;;;;11.93;3.73;;;12.00;99.90;;;;;;5071830;28;20169;-61
2023/05/27 02:24:44;;;;;;;13.83;4.27;;;11.90;99.90;;;;;;5073844;28;20167;-60
2023/05/27 02:27:09;;;;;;;10.57;3.47;;;11.90;99.90;;;;;;5071487;28;20233;-61
2023/05/27 02:29:35;;;;;;;14.30;4.17;;;11.90;99.90;;;;;;5071481;28;20273;-62
2023/05/27 02:32:01;;;;;;;14.10;4.07;;;11.90;99.90;;;;;;5070600;28;20183;-59
2023/05/27 02:34:27;;;;;;;12.43;4.23;;;11.90;99.90;;;;;;5071640;28;20173;-62
2023/05/27 02:36:52;;;;;;;9.63;3.70;;;12.00;99.90;;;;;;5072973;28;20271;-64
2023/05/27 02:39:18;;;;;;;14.10;4.27;;;12.00;99.90;;;;;;5071965;28;20607;-61
2023/05/27 02:41:43;;;;;;;14.40;5.07;;;11.90;99.90;;;;;;5072688;28;20495;-62
2023/05/27 02:44:09;;;;;;;10.23;3.37;;;11.90;99.90;;;;;;5073092;28;20530;-62
2023/05/27 02:46:34;;;;;;;10.30;4.03;;;11.90;99.90;;;;;;5074204;28;20277;-62
2023/05/27 02:49:00;;;;;;;15.70;4.33;;;11.90;99.90;;;;;;5073572;28;20471;-61
2023/05/27 02:51:28;;;;;;;13.60;4.40;;;11.80;99.90;;;;;;5074365;28;20169;-56
2023/05/27 02:53:54;;;;;;;17.27;3.70;;;11.70;99.90;;;;;;5078016;28;20169;-58
2023/05/27 02:56:19;;;;;;;12.00;4.77;;;11.70;99.90;;;;;;5078313;28;20227;-62
2023/05/27 02:58:45;;;;;;;18.33;5.33;;;11.70;99.90;;;;;;5078014;28;20196;-61
2023/05/27 03:01:10;;;;;;;17.70;4.30;;;11.70;99.90;;;;;;5076506;28;20421;-61
2023/05/27 03:03:36;;;;;;;17.83;4.17;;;11.70;99.90;;;;;;5076219;28;20181;-61
2023/05/27 03:06:03;;;;;;;13.07;4.30;;;11.70;99.90;;;;;;5078257;28;20233;-62
2023/05/27 03:08:28;;;;;;;11.77;4.03;;;11.60;99.90;;;;;;5076761;28;20565;-61
2023/05/27 03:10:54;;;;;;;18.03;4.63;;;11.60;99.90;;;;;;5076958;28;20165;-62
2023/05/27 03:13:20;;;;;;;15.13;4.50;;;11.60;99.90;;;;;;5077257;28;20226;-62
2023/05/27 03:15:45;;;;;;;14.47;4.50;;;11.60;99.90;;;;;;5076913;28;20180;-61
2023/05/27 03:18:11;;;;;;;14.43;4.60;;;11.60;99.90;;;;;;5077297;28;20197;-58
2023/05/27 03:20:36;;;;;;;11.70;4.50;;;11.50;99.90;;;;;;5077223;28;20216;-61
2023/05/27 03:23:02;;;;;;;11.30;4.87;;;11.50;99.90;;;;;;5075144;28;20177;-61
2023/05/27 03:25:28;;;;;;;14.07;4.00;;;11.40;99.90;;;;;;5074962;28;20169;-61
2023/05/27 03:27:54;;;;;;;13.23;3.87;;;11.40;99.90;;;;;;5073514;28;20157;-59
2023/05/27 03:30:20;;;;;;;13.20;4.60;;;11.30;99.90;;;;;;5074844;28;20169;-59
2023/05/27 03:32:46;;;;;;;13.60;3.90;;;11.30;99.90;;;;;;5076659;28;20165;-61
2023/05/27 03:35:11;;;;;;;14.43;4.37;;;11.30;99.90;;;;;;5076113;28;20165;-60
2023/05/27 03:37:37;;;;;;;11.50;4.27;;;11.30;99.90;;;;;;5077343;28;20183;-61
2023/05/27 03:40:03;;;;;;;14.13;4.23;;;11.30;99.90;;;;;;5076770;28;20610;-61
2023/05/27 03:42:28;;;;;;;11.87;4.23;;;11.30;99.90;;;;;;5075420;28;20169;-61
2023/05/27 03:44:54;;;;;;;12.17;3.93;;;11.40;99.90;;;;;;5073901;28;20161;-61
2023/05/27 03:47:21;;;;;;;19.87;4.87;;;11.30;99.90;;;;;;5072837;28;20169;-62
2023/05/27 03:49:47;;;;;;;13.00;4.73;;;11.30;99.90;;;;;;5072767;28;20482;-61
2023/05/27 03:52:14;;;;;;;15.37;4.90;;;11.30;99.90;;;;;;5077680;28;20180;-60
2023/05/27 03:54:40;;;;;;;12.90;4.50;;;11.30;99.90;;;;;;5073612;28;20173;-60
2023/05/27 03:57:06;;;;;;;12.27;3.57;;;11.30;99.90;;;;;;5075611;28;20168;-61
2023/05/27 03:59:32;;;;;;;11.97;4.07;;;11.20;99.90;;;;;;5075386;28;20193;-62
2023/05/27 04:01:58;;;;;;;16.77;4.93;;;11.20;99.90;;;;;;5073240;28;20439;-61
2023/05/27 04:04:23;;;;;;;16.50;4.43;;;11.20;99.90;;;;;;5072662;28;20230;-61
2023/05/27 04:06:49;;;;;;;11.93;4.40;;;11.20;99.90;;;;;;5071717;28;20181;-62
2023/05/27 04:09:14;;;;;;;22.13;5.50;;;11.20;99.90;;;;;;5071516;28;20176;-62
2023/05/27 04:11:40;;;;;;;10.87;4.20;;;11.20;99.90;;;;;;5072706;28;20580;-61
2023/05/27 04:14:09;;;;;;;10.70;3.97;;;11.20;99.90;;;;;;5072964;28;20241;-61
2023/05/27 04:16:35;;;;;;;15.53;4.63;;;11.10;99.90;;;;;;5067780;28;20423;-62
2023/05/27 04:19:01;;;;;;;15.37;4.33;;;11.10;99.90;;;;;;5067238;28;20207;-61
2023/05/27 04:21:27;;;;;;;20.47;4.07;;;11.10;99.90;;;;;;5067113;28;20185;-61
2023/05/27 04:23:52;;;;;;;12.90;4.30;;;11.20;99.90;;;;;;5068434;28;20592;-61
2023/05/27 04:26:18;;;;;;;12.60;4.50;;;11.10;99.90;;;;;;5067843;28;20169;-61
2023/05/27 04:28:45;;;;;;;13.07;4.63;;;11.20;99.90;;;;;;5067608;28;20208;-62
2023/05/27 04:31:12;;;;;;;12.07;4.13;;;11.20;99.90;;;;;;5070757;28;20181;-62
2023/05/27 04:33:39;;;;;;;11.53;4.37;;;11.20;99.90;;;;;;5074046;28;20189;-61
2023/05/27 04:36:06;;;;;;;11.73;4.17;;;11.20;99.90;;;;;;5073622;28;20238;-61
2023/05/27 04:38:31;;;;;;;11.00;4.00;;;11.20;99.90;;;;;;5074585;28;20215;-59
2023/05/27 04:40:57;;;;;;;15.17;4.33;;;11.20;99.90;;;;;;5073298;28;20173;-61
2023/05/27 04:43:23;;;;;;;11.83;3.63;;;11.20;99.90;;;;;;5071609;28;20226;-61
2023/05/27 04:45:49;;;;;;;17.50;4.50;;;11.30;99.90;;;;;;5069861;28;20452;-59
2023/05/27 04:48:15;;;;;;;11.90;4.40;;;11.30;99.90;;;;;;5069470;28;20173;-61
2023/05/27 04:50:41;;;;;;;13.93;4.27;;;11.30;99.90;;;;;;5069105;28;20168;-62
2023/05/27 04:53:07;;;;;;;13.03;5.07;;;11.30;99.90;;;;;;5068666;28;20336;-61
2023/05/27 04:55:32;;;;;;;14.60;3.97;;;11.30;99.90;;;;;;5068034;28;20179;-61
2023/05/27 04:57:59;;;;;;;14.17;3.87;;;11.30;99.90;;;;;;5066562;28;20230;-62
2023/05/27 05:00:49;;;;;;;13.83;5.33;;;11.30;99.90;;;;;;5066821;28;20180;-59
2023/05/27 05:03:21;;;;;;;18.40;4.90;;;11.40;99.90;;;;;;5066176;28;20169;-61
2023/05/27 05:05:51;;;;;;;12.00;3.93;;;11.40;99.90;;;;;;5065036;28;20499;-61
2023/05/27 05:08:17;;;;;;;14.53;4.27;;;11.40;99.90;;;;;;5067657;28;20230;-61
2023/05/27 05:10:43;;;;;;;11.73;4.00;;;11.40;99.90;;;;;;5066139;28;20169;-60
2023/05/27 05:13:09;;;;;;;13.37;3.83;;;11.40;99.90;;;;;;5068119;28;20234;-61
2023/05/27 05:15:34;;;;;;;9.40;3.93;;;11.40;99.90;;;;;;5068459;28;20321;-61
2023/05/27 05:18:00;;;;;;;12.73;4.10;;;11.50;99.90;;;;;;5070072;28;20175;-61
2023/05/27 05:20:25;;;;;;;11.40;3.80;;;11.50;99.90;;;;;;5070659;28;20216;-60
2023/05/27 05:22:51;;;;;;;13.53;3.97;;;11.50;99.90;;;;;;5071674;28;20464;-57
2023/05/27 05:25:17;;;;;;;14.63;4.67;;;11.50;99.90;;;;;;5070054;28;20161;-61
2023/05/27 05:27:42;;;;;;;10.63;3.80;;;11.50;99.90;;;;;;5069837;28;20207;-61
2023/05/27 05:30:08;;;;;;;13.87;4.33;;;11.50;99.90;;;;;;5069073;28;20196;-61
2023/05/27 05:32:34;;;;;;;13.37;4.13;;;11.60;99.90;;;;;;5069216;28;20169;-60
2023/05/27 05:34:59;;;;;;;10.90;3.50;;;11.60;99.90;;;;;;5069932;28;20255;-61
2023/05/27 05:37:25;;;;;;;10.13;3.60;;;11.60;99.90;;;;;;5070286;28;20524;-61
2023/05/27 05:39:50;;;;;;;11.83;3.93;;;11.60;99.90;;;;;;5067435;28;20469;-62
2023/05/27 05:42:17;;;;;;;11.13;4.23;;;11.70;99.90;;;;;;5068639;28;20540;-62
2023/05/27 05:44:42;;;;;;;11.67;3.97;;;11.70;99.90;;;;;;5068058;28;20336;-61
2023/05/27 05:47:08;;;;;;;11.80;4.17;;;11.70;99.90;;;;;;5068474;28;20165;-62
2023/05/27 05:49:33;;;;;;;11.87;4.07;;;11.70;99.90;;;;;;5069167;28;20571;-60
2023/05/27 05:51:59;;;;;;;10.93;3.73;;;11.70;99.90;;;;;;5067957;28;20262;-61
2023/05/27 05:54:24;;;;;;;10.70;4.00;;;11.70;99.90;;;;;;5069299;28;20179;-61
2023/05/27 05:56:50;;;;;;;11.67;3.93;;;11.70;99.90;;;;;;5069185;28;20535;-60
2023/05/27 05:59:16;;;;;;;11.20;3.40;;;11.80;99.90;;;;;;5069993;28;20350;-60
2023/05/27 06:01:41;;;;;;;11.20;4.00;;;11.80;99.90;;;;;;5070631;28;20169;-61
2023/05/27 06:04:07;;;;;;;15.73;4.97;;;11.90;99.90;;;;;;5070784;28;20164;-62
2023/05/27 06:06:32;;;;;;;15.23;3.90;;;11.90;99.90;;;;;;5069353;28;20165;-59
2023/05/27 06:08:58;;;;;;;12.20;3.40;;;11.90;99.90;;;;;;5071489;28;20164;-59
2023/05/27 06:11:23;;;;;;;12.23;4.00;;;11.90;99.90;;;;;;5072767;28;20451;-62
2023/05/27 06:13:49;;;;;;;10.80;3.53;;;12.00;99.90;;;;;;5067428;28;20172;-59
2023/05/27 06:16:14;;;;;;;10.57;3.83;;;12.00;99.90;;;;;;5069270;28;20200;-59
2023/05/27 06:18:40;;;;;;;12.10;3.53;;;12.00;99.90;;;;;;5072724;28;20216;-59
2023/05/27 06:21:05;;;;;;;9.37;3.50;;;12.00;99.90;;;;;;5071920;28;20379;-59
2023/05/27 06:23:31;;;;;;;15.27;4.17;;;12.00;99.90;;;;;;5072872;28;20183;-59
2023/05/27 06:25:57;;;;;;;6.97;2.87;;;12.00;99.90;;;;;;5070908;28;20165;-59
2023/05/27 06:28:22;;;;;;;11.57;3.43;;;12.00;99.90;;;;;;5068171;28;20173;-59
2023/05/27 06:30:48;;;;;;;15.37;3.60;;;12.10;99.90;;;;;;5067150;28;20300;-59
2023/05/27 06:33:13;;;;;;;6.23;2.73;;;12.10;99.90;;;;;;5067657;28;20329;-57
2023/05/27 06:35:39;;;;;;;10.30;3.33;;;12.10;99.90;;;;;;5068265;28;20381;-59
2023/05/27 06:38:05;;;;;;;18.70;4.60;;;12.10;99.90;;;;;;5066316;28;20226;-61
2023/05/27 06:40:31;;;;;;;6.33;2.97;;;12.20;99.90;;;;;;5067133;28;20168;-60
2023/05/27 06:42:56;;;;;;;13.70;3.70;;;12.20;99.90;;;;;;5066487;28;20164;-62
2023/05/27 06:45:22;;;;;;;15.50;3.83;;;12.20;99.90;;;;;;5064714;28;20177;-60
2023/05/27 06:47:47;;;;;;;13.30;3.80;;;12.30;99.90;;;;;;5066025;28;20271;-59
2023/05/27 06:50:13;;;;;;;10.00;3.57;;;12.30;99.90;;;;;;5065352;28;20596;-57
2023/05/27 06:52:38;;;;;;;8.87;3.07;;;12.40;99.90;;;;;;5064798;28;20464;-57
2023/05/27 06:55:05;;;;;;;8.60;3.33;;;12.40;99.90;;;;;;5065574;28;20165;-61
2023/05/27 06:57:30;;;;;;;12.83;3.77;;;12.40;99.90;;;;;;5063634;28;20165;-61
2023/05/27 06:59:56;;;;;;;7.17;2.93;;;12.40;99.90;;;;;;5064104;28;20273;-59
2023/05/27 07:02:21;;;;;;;10.07;4.27;;;12.50;99.90;;;;;;5065492;28;20398;-57
2023/05/27 07:04:47;;;;;;;9.80;3.00;;;12.50;99.90;;;;;;5063215;28;20610;-59
2023/05/27 07:07:13;;;;;;;6.87;3.00;;;12.50;99.90;;;;;;5064720;28;20457;-59
2023/05/27 07:09:39;;;;;;;9.37;3.07;;;12.60;99.90;;;;;;5064638;28;20193;-59
2023/05/27 07:12:06;;;;;;;13.17;3.30;;;12.60;99.90;;;;;;5064280;28;20200;-59
2023/05/27 07:14:32;;;;;;;15.90;4.53;;;12.60;99.90;;;;;;5061106;28;20172;-59
2023/05/27 07:16:58;;;;;;;10.67;3.27;;;12.70;99.90;;;;;;5062119;28;20169;-58
2023/05/27 07:19:23;;;;;;;8.77;2.90;;;12.60;99.90;;;;;;5063841;28;20350;-59
2023/05/27 07:21:49;;;;;;;9.63;3.53;;;12.70;99.90;;;;;;5061511;28;20173;-59
2023/05/27 07:24:14;;;;;;;12.27;4.30;;;12.70;99.90;;;;;;5061675;28;20260;-56
2023/05/27 07:26:40;;;;;;;13.17;4.00;;;12.70;99.90;;;;;;5060850;28;20218;-59
2023/05/27 07:29:06;;;;;;;12.77;3.33;;;12.70;99.90;;;;;;5060761;28;20238;-59
2023/05/27 07:31:31;;;;;;;11.30;3.43;;;12.80;99.90;;;;;;5062293;28;20239;-59
2023/05/27 07:33:57;;;;;;;8.07;3.40;;;12.80;99.90;;;;;;5060985;28;20208;-57
2023/05/27 07:36:23;;;;;;;12.73;3.60;;;12.80;99.90;;;;;;5061402;28;20169;-59
2023/05/27 07:38:48;;;;;;;10.23;3.40;;;12.90;99.90;;;;;;5062552;28;20576;-56
2023/05/27 07:41:14;;;;;;;16.60;4.90;;;12.90;99.90;;;;;;5063898;28;20255;-59
2023/05/27 07:43:40;;;;;;;11.17;3.93;;;13.00;99.90;;;;;;5066075;28;20232;-59
2023/05/27 07:46:05;;;;;;;17.53;4.73;;;13.10;99.90;;;;;;5063090;28;20545;-59
2023/05/27 07:48:31;;;;;;;12.70;3.67;;;13.10;99.90;;;;;;5062140;28;20249;-59
2023/05/27 07:50:57;;;;;;;12.37;3.60;;;13.10;99.90;;;;;;5063712;28;20427;-59
2023/05/27 07:53:23;;;;;;;8.53;2.97;;;13.20;99.90;;;;;;5065853;28;20210;-59
2023/05/27 07:55:48;;;;;;;11.30;2.73;;;13.20;99.90;;;;;;5066638;28;20172;-59
2023/05/27 07:58:14;;;;;;;9.30;3.30;;;13.30;99.90;;;;;;5067333;28;20505;-61
2023/05/27 08:00:40;;;;;;;10.83;3.20;;;13.30;99.90;;;;;;5068381;28;20174;-59
2023/05/27 08:03:06;;;;;;;12.27;3.90;;;13.30;99.90;;;;;;5069656;28;20185;-59
2023/05/27 08:05:32;;;;;;;10.70;2.97;;;13.30;99.90;;;;;;5068475;28;20184;-59
2023/05/27 08:07:58;;;;;;;11.87;3.93;;;13.40;99.90;;;;;;5066760;28;20173;-60
2023/05/27 08:10:23;;;;;;;6.97;2.63;;;13.40;99.90;;;;;;5064874;28;20191;-58
2023/05/27 08:12:49;;;;;;;7.87;3.00;;;13.50;99.90;;;;;;5064618;28;20165;-59
2023/05/27 08:15:14;;;;;;;12.70;3.47;;;13.50;99.90;;;;;;5066383;28;20169;-59
2023/05/27 08:17:42;;;;;;;13.37;3.13;;;13.60;99.90;;;;;;5067709;28;20364;-60
2023/05/27 08:20:08;;;;;;;17.30;3.73;;;13.60;99.90;;;;;;5068242;28;20693;-59
2023/05/27 08:22:33;;;;;;;10.37;3.17;;;13.70;99.90;;;;;;5068448;28;20260;-58
2023/05/27 08:24:59;;;;;;;8.80;3.10;;;13.70;99.90;;;;;;5066873;28;20295;-60
2023/05/27 08:27:46;;;;;;;8.70;3.20;;;13.70;99.90;;;;;;5065805;28;20279;-59
2023/05/27 08:30:13;;;;;;;11.23;3.57;;;13.80;99.90;;;;;;5066272;28;20180;-59
2023/05/27 08:32:42;;;;;;;12.77;3.47;;;13.80;99.90;;;;;;5065357;28;20177;-60
2023/05/27 08:35:08;;;;;;;12.53;3.30;;;13.90;99.90;;;;;;5063935;28;20234;-61
2023/05/27 08:37:34;;;;;;;8.03;3.50;;;13.90;99.90;;;;;;5063584;28;20184;-58
2023/05/27 08:40:00;;;;;;;10.30;3.50;;;14.00;99.90;;;;;;5061961;28;20264;-59
2023/05/27 08:42:26;;;;;;;6.97;3.07;;;14.00;99.90;;;;;;5062912;28;20203;-58
2023/05/27 08:44:51;;;;;;;9.63;3.73;;;14.00;99.90;;;;;;5059847;28;20232;-61
2023/05/27 08:47:18;;;;;;;12.43;3.73;;;14.10;99.90;;;;;;5057156;28;20220;-59
2023/05/27 08:49:44;;;;;;;8.40;3.20;;;14.10;99.90;;;;;;5058496;28;20456;-58
2023/05/27 08:52:10;;;;;;;8.63;3.00;;;14.10;99.90;;;;;;5065201;28;20222;-58
2023/05/27 08:54:36;;;;;;;7.47;2.63;;;14.20;99.90;;;;;;5070281;28;20183;-59
2023/05/27 08:57:07;;;;;;;10.90;3.50;;;14.20;99.90;;;;;;5068114;28;20191;-58
2023/05/27 08:59:34;;;;;;;14.40;3.53;;;14.30;99.90;;;;;;5063825;28;20215;-60
2023/05/27 09:01:59;;;;;;;13.93;3.80;;;14.30;99.90;;;;;;5069581;28;20173;-59
2023/05/27 09:04:25;;;;;;;7.63;3.57;;;14.30;99.90;;;;;;5072214;28;20266;-59
2023/05/27 09:06:52;;;;;;;12.63;4.03;;;14.30;99.90;;;;;;5071239;28;20181;-59
2023/05/27 09:09:18;;;;;;;17.83;4.40;;;14.30;99.90;;;;;;5072872;28;20173;-59
2023/05/27 09:11:44;;;;;;;19.53;4.53;;;14.30;99.90;;;;;;5073265;28;20238;-59
2023/05/27 09:14:30;;;;;;;12.10;4.07;;;14.30;99.90;;;;;;5073068;28;20173;-60
2023/05/27 09:16:56;;;;;;;13.43;4.17;;;14.30;99.90;;;;;;5069172;28;20632;-60
2023/05/27 09:19:22;;;;;;;7.27;3.40;;;14.30;99.90;;;;;;5069719;28;20227;-60
2023/05/27 09:21:52;;;;;;;8.17;3.40;;;14.40;99.90;;;;;;5069556;28;20205;-60
2023/05/27 09:24:18;;;;;;;11.30;3.67;;;14.40;99.90;;;;;;5068736;28;20583;-60
2023/05/27 09:26:43;;;;;;;10.93;4.00;;;14.40;99.90;;;;;;5066650;28;20164;-60
2023/05/27 09:29:10;;;;;;;15.13;4.43;;;14.50;99.90;;;;;;5066520;28;20523;-57
2023/05/27 09:31:40;;;;;;;14.67;3.87;;;14.50;99.90;;;;;;5066219;28;20181;-57
2023/05/27 09:34:16;;;;;;;17.00;4.20;;;14.50;99.90;;;;;;5065022;28;20173;-66
2023/05/27 09:36:47;;;;;;;14.47;4.47;;;14.70;99.90;;;;;;5063525;28;20233;-65
2023/05/27 09:39:13;;;;;;;9.90;3.47;;;14.80;99.90;;;;;;5056513;28;20361;-65
2023/05/27 09:41:40;;;;;;;11.63;3.83;;;14.80;99.90;;;;;;5057932;28;20470;-66
2023/05/27 09:44:06;;;;;;;14.47;4.10;;;14.80;99.90;;;;;;5058996;28;20395;-65
2023/05/27 09:46:35;;;;;;;13.03;4.43;;;14.80;99.90;;;;;;5058667;28;20570;-66
2023/05/27 09:49:05;;;;;;;11.70;4.70;;;14.80;99.90;;;;;;5060575;28;20176;-65
2023/05/27 09:51:32;;;;;;;12.13;4.20;;;14.80;99.90;;;;;;5057636;28;20176;-65
2023/05/27 09:53:58;;;;;;;9.33;3.43;;;14.90;99.90;;;;;;5052529;28;20169;-65
2023/05/27 09:56:27;;;;;;;9.50;4.27;;;15.00;99.90;;;;;;5053911;28;20171;-55
2023/05/27 09:58:56;;;;;;;10.43;4.47;;;15.10;99.90;;;;;;5056576;28;20211;-56
2023/05/27 10:01:25;;;;;;;12.47;4.27;;;15.10;99.90;;;;;;5058801;28;20175;-55
2023/05/27 10:03:51;;;;;;;11.53;3.90;;;15.20;99.90;;;;;;5059695;28;20375;-58
2023/05/27 10:06:17;;;;;;;14.50;4.53;;;15.20;99.90;;;;;;5061248;28;20164;-55
2023/05/27 10:08:44;;;;;;;8.37;4.37;;;15.30;99.90;;;;;;5062126;28;20173;-56
2023/05/27 10:11:13;;;;;;;12.10;4.40;;;15.30;99.90;;;;;;5059926;28;20641;-57
2023/05/27 10:13:39;;;;;;;9.77;3.30;;;15.40;99.90;;;;;;5060771;28;20229;-57
2023/05/27 10:16:06;;;;;;;11.90;3.60;;;15.50;99.90;;;;;;5060282;28;20169;-58
2023/05/27 10:18:33;;;;;;;9.90;3.30;;;15.60;99.90;;;;;;5059083;28;20488;-54
2023/05/27 10:21:00;;;;;;;11.63;3.93;;;15.60;99.90;;;;;;5059181;28;20466;-53
2023/05/27 10:23:33;;;;;;;13.63;4.13;;;15.70;99.90;;;;;;5060509;28;20460;-59
2023/05/27 10:26:06;;;;;;;8.63;3.93;;;15.90;99.90;;;;;;5061391;28;20405;-56
2023/05/27 10:28:35;;;;;;;16.37;4.87;;;15.90;99.90;;;;;;5059810;28;20176;-58
2023/05/27 10:31:08;;;;;;;12.50;4.33;;;16.00;99.90;;;;;;5058452;28;20238;-57
2023/05/27 10:33:39;;;;;;;17.43;4.43;;;15.90;99.90;;;;;;5059563;28;20177;-54
2023/05/27 10:36:09;;;;;;;9.10;4.13;;;16.00;99.90;;;;;;5059302;28;20375;-56
2023/05/27 10:38:38;;;;;;;9.13;3.80;;;16.00;99.90;;;;;;5056038;28;20584;-57
2023/05/27 10:41:06;;;;;;;10.90;3.60;;;16.10;99.90;;;;;;5056577;28;20546;-57
2023/05/27 10:43:33;;;;;;;9.00;3.67;;;16.20;99.90;;;;;;5054076;28;20263;-59
2023/05/27 10:46:12;;;;;;;13.43;4.30;;;16.20;99.90;;;;;;5056771;28;20168;-56
2023/05/27 10:48:39;;;;;;;10.90;4.07;;;16.30;99.90;;;;;;5059236;28;20292;-57
2023/05/27 10:51:06;;;;;;;9.07;3.73;;;16.30;99.90;;;;;;5058184;28;20283;-56
2023/05/27 10:53:35;;;;;;;12.10;3.63;;;16.30;99.90;;;;;;5063468;28;20275;-59
2023/05/27 10:56:01;;;;;;;13.27;4.40;;;16.50;99.90;;;;;;5065118;28;20180;-59
2023/05/27 10:58:28;;;;;;;11.20;3.27;;;16.50;99.90;;;;;;5065016;28;20376;-58
2023/05/27 11:00:56;;;;;;;9.60;3.80;;;16.50;99.90;;;;;;5062297;28;20169;-59
2023/05/27 11:03:29;;;;;;;9.63;3.53;;;16.60;99.90;;;;;;5062285;28;20222;-59
2023/05/27 11:06:05;;;;;;;6.57;3.50;;;16.60;99.90;;;;;;5061628;28;20195;-58
2023/05/27 11:08:32;;;;;;;10.23;3.73;;;16.70;99.90;;;;;;5058888;28;20176;-59
2023/05/27 11:11:02;;;;;;;9.67;3.60;;;16.70;99.90;;;;;;5058963;28;20172;-59
2023/05/27 11:13:35;;;;;;;10.43;3.63;;;16.80;99.90;;;;;;5060232;28;20195;-59
2023/05/27 11:16:06;;;;;;;6.57;3.00;;;16.90;99.90;;;;;;5065068;28;20173;-58
2023/05/27 11:18:37;;;;;;;10.43;3.23;;;17.00;99.90;;;;;;5067690;28;20262;-59
2023/05/27 11:21:04;;;;;;;11.37;4.23;;;17.00;99.90;;;;;;5069171;28;20274;-58
2023/05/27 11:23:46;;;;;;;14.00;4.10;;;17.10;99.90;;;;;;5068997;28;20172;-59
2023/05/27 11:26:22;;;;;;;10.03;3.97;;;17.10;99.90;;;;;;5071535;28;20214;-59
2023/05/27 11:28:53;;;;;;;5.47;3.10;;;17.10;99.90;;;;;;5072910;28;20699;-58
2023/05/27 11:31:30;;;;;;;9.30;3.23;;;17.10;99.90;;;;;;5072190;28;20176;-59
2023/05/27 11:33:56;;;;;;;7.33;2.93;;;17.10;99.90;;;;;;5071918;28;20156;-59
2023/05/27 11:36:26;;;;;;;8.03;3.00;;;17.10;99.90;;;;;;5069957;28;20156;-58
2023/05/27 11:38:57;;;;;;;7.33;3.03;;;17.10;99.90;;;;;;5070589;28;20198;-61
2023/05/27 11:41:28;;;;;;;6.93;3.60;;;17.10;99.90;;;;;;5069708;28;20153;-57
2023/05/27 11:44:05;;;;;;;8.57;3.50;;;17.20;99.90;;;;;;5066750;28;20168;-59
2023/05/27 11:46:37;;;;;;;13.50;4.27;;;17.20;99.90;;;;;;5069014;28;20195;-58
2023/05/27 11:49:04;;;;;;;7.97;4.03;;;17.30;99.90;;;;;;5067330;28;20466;-59
2023/05/27 11:51:31;;;;;;;12.40;4.10;;;17.30;99.90;;;;;;5068416;28;20169;-59
2023/05/27 11:53:59;;;;;;;8.67;3.50;;;17.40;99.90;;;;;;5068580;28;20313;-60
2023/05/27 11:56:25;;;;;;;7.93;3.50;;;17.40;99.90;;;;;;5068697;28;20176;-58
2023/05/27 11:58:50;;;;;;;7.83;3.30;;;17.50;99.90;;;;;;5069335;28;20615;-57
2023/05/27 12:01:16;;;;;;;8.77;3.10;;;17.60;99.90;;;;;;5069934;28;20204;-59
2023/05/27 12:03:41;;;;;;;8.97;3.20;;;17.80;99.90;;;;;;5069135;28;20181;-59
2023/05/27 12:06:07;;;;;;;7.70;3.17;;;18.00;99.90;;;;;;5067981;28;20466;-57
2023/05/27 12:08:32;;;;;;;6.53;2.60;;;18.20;99.90;;;;;;5057630;28;20161;-57
2023/05/27 12:10:58;;;;;;;10.00;3.83;;;18.30;99.90;;;;;;5057302;28;20177;-57
2023/05/27 12:13:24;;;;;;;9.77;3.20;;;18.50;99.90;;;;;;5060635;28;20250;-58
2023/05/27 12:15:50;;;;;;;5.77;2.90;;;18.60;99.90;;;;;;5058820;28;20173;-59
2023/05/27 12:18:16;;;;;;;9.23;4.13;;;18.80;99.90;;;;;;5057414;28;20333;-58
2023/05/27 12:20:44;;;;;;;7.77;3.00;;;18.90;99.90;;;;;;5056223;28;20288;-58
2023/05/27 12:23:09;;;;;;;11.27;4.10;;;19.00;99.90;;;;;;5055383;28;20180;-55
2023/05/27 12:25:35;;;;;;;8.90;3.63;;;19.10;99.90;;;;;;5056320;28;20350;-58
2023/05/27 12:28:01;;;;;;;9.03;4.27;;;19.30;99.90;;;;;;5060381;28;20259;-57
2023/05/27 12:30:27;;;;;;;9.80;3.90;;;19.30;99.90;;;;;;5061776;28;20173;-60
2023/05/27 12:32:53;;;;;;;6.27;3.13;;;19.40;99.90;;;;;;5062077;28;20173;-59
2023/05/27 12:35:18;;;;;;;12.10;4.27;;;19.50;99.90;;;;;;5064587;28;20169;-57
2023/05/27 12:37:44;;;;;;;9.83;3.97;;;19.60;99.90;;;;;;5065850;28;20169;-59